This is the latest recevied weather packets stored in our database for station/object CE3RCJ-14. If no packets are shown the sender has not sent any weather packets the latest 10 day(s).
| Time | Temp. | Humidity | Pressure | Rain* | Wind** | Luminosity | Snow |
|---|---|---|---|---|---|---|---|
| 1777710782 | 10.56° C | 64% | 1020.1 hPa | - | - | - | - |
| 1777708982 | 11.11° C | 64% | 1020.2 hPa | - | - | - | - |
| 1777706897 | 10.56° C | 65% | 1020.7 hPa | - | - | - | - |
| 1777706282 | 11.11° C | 64% | 1020.7 hPa | - | - | - | - |
| 1777704784 | 11.11° C | 64% | 1020.7 hPa | - | - | - | - |
| 1777703286 | 11.11° C | 66% | 1021.1 hPa | - | - | - | - |
| 1777702385 | 11.11° C | 65% | 1021.4 hPa | - | - | - | - |
| 1777700027 | 11.67° C | 64% | 1021.3 hPa | - | - | - | - |
| 1777699098 | 11.67° C | 65% | 1021.2 hPa | - | - | - | - |
| 1777698477 | 11.67° C | 65% | 1021.3 hPa | - | - | - | - |
| 1777696982 | 12.22° C | 65% | 1021.4 hPa | - | - | - | - |
| 1777695182 | 12.22° C | 65% | 1021.8 hPa | - | - | - | - |
| 1777693384 | 12.78° C | 65% | 1022.1 hPa | - | - | - | - |
| 1777691585 | 12.78° C | 65% | 1022.3 hPa | - | - | - | - |
| 1777690382 | 12.22° C | 66% | 1022.5 hPa | - | - | - | - |
| 1777687995 | 13.33° C | 65% | 1022.1 hPa | - | - | - | - |
| 1777686785 | 13.33° C | 65% | 1022.1 hPa | - | - | - | - |
| 1777684385 | 13.89° C | 64% | 1021.9 hPa | - | - | - | - |
| 1777682897 | 13.89° C | 65% | 1021.9 hPa | - | - | - | - |
| 1777680510 | 14.44° C | 63% | 1021.7 hPa | - | - | - | - |
| 1777679299 | 14.44° C | 63% | 1021.6 hPa | - | - | - | - |
| 1777678083 | 14.44° C | 63% | 1021.7 hPa | - | - | - | - |
| 1777676898 | 14.44° C | 63% | 1021.4 hPa | - | - | - | - |
| 1777675082 | 15.56° C | 61% | 1020.9 hPa | - | - | - | - |
| 1777673284 | 15.56° C | 61% | 1021 hPa | - | - | - | - |
* Rain since midnight (hover to see other rain measurements)
** Current wind speed in m/s (hover to see current wind gust speed)